Time,TemperatureF,DewpointF,PressureIn,WindDirection,WindDirectionDegrees,WindSpeedMPH,WindSpeedGustMPH,Humidity,HourlyPrecipIn,Conditions,Clouds,dailyrainin,SoftwareType,DateUTC
2013-03-07 00:00:00,33.3,33.3,30.05,West,260,0.0,2.7,100,0.00,,,0.00,WUHU215WMR968SP,2013-03-07 05:00:00,
2013-03-07 00:05:00,33.3,33.3,30.02,NW,309,0.0,2.7,100,0.00,,,0.00,WUHU215WMR968SP,2013-03-07 05:05:00,
2013-03-07 00:10:00,33.3,33.3,30.02,NW,321,0.0,3.6,100,0.00,,,0.00,WUHU215WMR968SP,2013-03-07 05:10:00,
2013-03-07 00:15:00,33.3,33.3,30.02,North,0,2.2,5.4,100,0.00,,,0.00,WUHU215WMR968SP,2013-03-07 05:15:00,
2013-03-07 00:20:00,33.3,33.3,30.05,NNW,328,2.7,5.4,100,0.00,,,0.00,WUHU215WMR968SP,2013-03-07 05:20:00,
2013-03-07 00:25:00,33.1,33.1,30.05,WSW,250,3.1,5.4,100,0.00,,,0.00,WUHU215WMR968SP,2013-03-07 05:25:00,
2013-03-07 00:30:00,33.1,33.1,30.05,NW,325,3.1,4.0,100,0.00,,,0.00,WUHU215WMR968SP,2013-03-07 05:30:00,
2013-03-07 00:35:00,32.9,32.9,30.02,NW,324,2.7,4.0,100,0.00,,,0.00,WUHU215WMR968SP,2013-03-07 05:35:00,
2013-03-07 00:40:00,32.9,32.9,30.02,WNW,284,0.0,4.0,100,0.00,,,0.00,WUHU215WMR968SP,2013-03-07 05:40:00,
2013-03-07 00:45:00,32.7,32.7,30.02,NW,324,0.0,3.1,100,0.00,,,0.00,WUHU215WMR968SP,2013-03-07 05:45:00,
2013-03-07 00:50:00,32.7,32.7,30.02,WNW,301,0.0,3.6,100,0.00,,,0.00,WUHU215WMR968SP,2013-03-07 05:50:00,
2013-03-07 00:55:00,32.7,32.7,30.02,NNW,343,3.6,5.4,100,0.00,,,0.00,WUHU215WMR968SP,2013-03-07 05:55:00,
2013-03-07 01:00:00,32.7,32.7,30.02,NW,312,3.1,5.4,100,0.00,,,0.00,WUHU215WMR968SP,2013-03-07 06:00:00,
2013-03-07 01:05:00,32.5,32.5,30.05,NNW,342,0.0,4.9,100,0.00,,,0.00,WUHU215WMR968SP,2013-03-07 06:05:00,
2013-03-07 01:10:00,32.5,32.5,30.05,North,0,0.0,4.9,100,0.00,,,0.00,WUHU215WMR968SP,2013-03-07 06:10:00,
2013-03-07 01:15:00,32.5,32.5,30.02,WNW,293,2.2,3.6,100,0.00,,,0.00,WUHU215WMR968SP,2013-03-07 06:15:00,
2013-03-07 01:20:00,32.4,32.4,30.02,NW,308,0.0,3.1,100,0.00,,,0.00,WUHU215WMR968SP,2013-03-07 06:20:00,
2013-03-07 01:25:00,32.4,32.4,30.02,NW,313,0.0,2.7,100,0.00,,,0.00,WUHU215WMR968SP,2013-03-07 06:25:00,
2013-03-07 01:31:00,32.4,32.4,30.02,NNW,340,0.0,4.0,100,0.00,,,0.00,WUHU215WMR968SP,2013-03-07 06:31:00,
2013-03-07 01:36:00,32.4,32.4,30.05,WNW,301,2.2,5.4,100,0.00,,,0.00,WUHU215WMR968SP,2013-03-07 06:36:00,
2013-03-07 01:41:00,32.4,32.4,30.05,WNW,293,0.0,5.4,100,0.00,,,0.00,WUHU215WMR968SP,2013-03-07 06:41:00,
2013-03-07 01:46:00,32.4,32.4,30.05,NNW,330,0.0,3.6,100,0.00,,,0.00,WUHU215WMR968SP,2013-03-07 06:46:00,
2013-03-07 01:51:00,32.4,32.4,30.05,WNW,290,0.0,3.6,100,0.00,,,0.00,WUHU215WMR968SP,2013-03-07 06:51:00,
2013-03-07 01:56:00,32.2,32.2,30.05,North,349,0.0,3.6,100,0.00,,,0.00,WUHU215WMR968SP,2013-03-07 06:56:00,
2013-03-07 02:01:00,32.2,32.2,30.05,NNW,342,0.0,3.6,100,0.00,,,0.00,WUHU215WMR968SP,2013-03-07 07:01:00,
2013-03-07 02:06:00,32.2,32.2,30.05,NNW,348,0.0,3.6,100,0.00,,,0.00,WUHU215WMR968SP,2013-03-07 07:06:00,
2013-03-07 02:11:00,32.2,32.2,30.05,North,3,0.0,4.0,100,0.00,,,0.00,WUHU215WMR968SP,2013-03-07 07:11:00,
2013-03-07 02:16:00,32.2,32.2,30.05,NW,313,2.7,5.4,100,0.00,,,0.00,WUHU215WMR968SP,2013-03-07 07:16:00,
2013-03-07 02:21:00,32.4,32.4,30.05,NNW,346,2.7,5.8,100,0.00,,,0.00,WUHU215WMR968SP,2013-03-07 07:21:00,
2013-03-07 02:26:00,32.4,32.4,30.05,NNW,343,2.2,5.8,100,0.00,,,0.00,WUHU215WMR968SP,2013-03-07 07:26:00,
2013-03-07 02:31:00,32.4,32.4,30.05,NNW,343,3.6,5.8,100,0.00,,,0.00,WUHU215WMR968SP,2013-03-07 07:31:00,
2013-03-07 02:36:00,32.4,32.4,30.05,WNW,295,2.2,6.7,100,0.00,,,0.00,WUHU215WMR968SP,2013-03-07 07:36:00,
2013-03-07 02:42:00,32.2,32.2,30.05,NW,312,3.6,6.7,100,0.00,,,0.00,WUHU215WMR968SP,2013-03-07 07:42:00,
2013-03-07 02:47:00,32.2,32.2,30.05,NNW,333,2.7,4.9,100,0.00,,,0.00,WUHU215WMR968SP,2013-03-07 07:47:00,
2013-03-07 02:52:00,32.2,32.2,30.05,NNW,328,3.6,6.7,100,0.00,,,0.00,WUHU215WMR968SP,2013-03-07 07:52:00,
2013-03-07 02:57:00,32.2,32.2,30.05,North,353,2.2,6.7,100,0.00,,,0.00,WUHU215WMR968SP,2013-03-07 07:57:00,
2013-03-07 03:02:00,32.2,32.2,30.05,North,353,2.7,4.0,100,0.00,,,0.00,WUHU215WMR968SP,2013-03-07 08:02:00,
2013-03-07 03:07:00,32.2,32.2,30.05,NNW,333,0.0,4.0,100,0.00,,,0.00,WUHU215WMR968SP,2013-03-07 08:07:00,
2013-03-07 03:12:00,32.2,32.2,30.05,NNW,341,2.7,5.4,100,0.00,,,0.00,WUHU215WMR968SP,2013-03-07 08:12:00,
2013-03-07 03:17:00,32.2,32.2,30.05,NNE,14,2.7,5.4,100,0.00,,,0.00,WUHU215WMR968SP,2013-03-07 08:17:00,
2013-03-07 03:22:00,32.2,32.2,30.05,North,353,0.0,6.3,100,0.00,,,0.00,WUHU215WMR968SP,2013-03-07 08:22:00,
2013-03-07 03:27:00,32.2,32.2,30.05,NNW,341,3.6,6.3,100,0.00,,,0.00,WUHU215WMR968SP,2013-03-07 08:27:00,
2013-03-07 03:32:00,32.2,32.2,30.05,NW,311,3.1,5.8,100,0.00,,,0.00,WUHU215WMR968SP,2013-03-07 08:32:00,
2013-03-07 03:37:00,32.2,32.2,30.05,WNW,303,0.0,5.4,100,0.00,,,0.00,WUHU215WMR968SP,2013-03-07 08:37:00,
2013-03-07 03:42:00,32.2,32.2,30.05,NNW,332,2.7,4.0,100,0.00,,,0.00,WUHU215WMR968SP,2013-03-07 08:42:00,
2013-03-07 03:47:00,32.2,32.2,30.05,NW,311,0.0,5.4,100,0.00,,,0.00,WUHU215WMR968SP,2013-03-07 08:47:00,
2013-03-07 03:52:00,32.2,32.2,30.05,NNW,328,3.6,6.3,100,0.00,,,0.00,WUHU215WMR968SP,2013-03-07 08:52:00,
2013-03-07 03:57:00,32.2,32.2,30.05,North,349,0.0,6.3,100,0.00,,,0.00,WUHU215WMR968SP,2013-03-07 08:57:00,
2013-03-07 04:02:00,32.2,32.2,30.05,NNW,331,0.0,4.9,100,0.00,,,0.00,WUHU215WMR968SP,2013-03-07 09:02:00,
2013-03-07 04:08:00,32.2,32.2,30.05,NNW,329,2.7,5.4,100,0.00,,,0.00,WUHU215WMR968SP,2013-03-07 09:08:00,
2013-03-07 04:13:00,32.2,32.2,30.05,NW,320,3.1,5.4,100,0.00,,,0.00,WUHU215WMR968SP,2013-03-07 09:13:00,
2013-03-07 04:18:00,32.0,32.0,30.05,NNW,342,0.0,4.5,100,0.00,,,0.00,WUHU215WMR968SP,2013-03-07 09:18:00,
2013-03-07 04:23:00,32.0,32.0,30.05,North,6,4.0,6.3,100,0.00,,,0.00,WUHU215WMR968SP,2013-03-07 09:23:00,
2013-03-07 04:28:00,32.0,32.0,30.05,North,357,3.1,6.3,100,0.00,,,0.00,WUHU215WMR968SP,2013-03-07 09:28:00,
2013-03-07 04:33:00,32.2,32.2,30.08,WSW,243,2.7,5.4,100,0.00,,,0.00,WUHU215WMR968SP,2013-03-07 09:33:00,
2013-03-07 04:38:00,32.2,32.2,30.08,North,353,2.2,4.0,100,0.00,,,0.00,WUHU215WMR968SP,2013-03-07 09:38:00,
2013-03-07 04:43:00,32.0,32.0,30.08,NNW,329,3.6,6.3,100,0.00,,,0.00,WUHU215WMR968SP,2013-03-07 09:43:00,
2013-03-07 04:48:00,32.0,32.0,30.08,NNE,22,4.5,6.3,100,0.00,,,0.00,WUHU215WMR968SP,2013-03-07 09:48:00,
2013-03-07 04:53:00,32.0,32.0,30.08,NNW,338,2.7,8.1,100,0.00,,,0.00,WUHU215WMR968SP,2013-03-07 09:53:00,
2013-03-07 04:59:00,32.0,32.0,30.08,NW,315,0.0,8.1,100,0.00,,,0.00,WUHU215WMR968SP,2013-03-07 09:59:00,
2013-03-07 05:04:00,32.0,32.0,30.08,NNW,337,3.1,5.8,100,0.00,,,0.00,WUHU215WMR968SP,2013-03-07 10:04:00,
2013-03-07 05:09:00,32.0,32.0,30.08,NW,322,2.7,5.8,100,0.00,,,0.00,WUHU215WMR968SP,2013-03-07 10:09:00,
2013-03-07 05:14:00,32.0,32.0,30.08,NW,326,2.2,4.9,100,0.00,,,0.00,WUHU215WMR968SP,2013-03-07 10:14:00,
2013-03-07 05:19:00,32.0,32.0,30.08,NW,311,2.2,6.3,100,0.00,,,0.00,WUHU215WMR968SP,2013-03-07 10:19:00,
2013-03-07 05:24:00,32.0,32.0,30.08,NNW,338,2.7,6.3,100,0.00,,,0.00,WUHU215WMR968SP,2013-03-07 10:24:00,
2013-03-07 05:29:00,31.8,31.8,30.08,NW,305,2.2,6.3,100,0.00,,,0.00,WUHU215WMR968SP,2013-03-07 10:29:00,
2013-03-07 05:34:00,31.8,31.8,30.08,NNW,342,2.2,6.3,100,0.00,,,0.00,WUHU215WMR968SP,2013-03-07 10:34:00,
2013-03-07 05:39:00,31.8,31.8,30.08,NNW,341,4.0,6.3,100,0.00,,,0.00,WUHU215WMR968SP,2013-03-07 10:39:00,
2013-03-07 05:44:00,31.6,31.6,30.08,North,9,2.7,6.3,100,0.00,,,0.00,WUHU215WMR968SP,2013-03-07 10:44:00,
2013-03-07 05:49:00,31.6,31.6,30.08,North,353,3.6,6.3,100,0.00,,,0.00,WUHU215WMR968SP,2013-03-07 10:49:00,
2013-03-07 05:54:00,31.6,31.6,30.08,NNW,342,4.0,6.3,100,0.00,,,0.00,WUHU215WMR968SP,2013-03-07 10:54:00,
2013-03-07 05:59:00,31.5,31.5,30.08,NNW,335,4.0,6.3,100,0.00,,,0.00,WUHU215WMR968SP,2013-03-07 10:59:00,
2013-03-07 06:04:00,31.5,31.5,30.11,NNW,336,0.0,6.3,100,0.00,,,0.00,WUHU215WMR968SP,2013-03-07 11:04:00,
2013-03-07 06:10:00,31.5,31.5,30.11,North,357,2.7,4.0,100,0.00,,,0.00,WUHU215WMR968SP,2013-03-07 11:10:00,
2013-03-07 06:15:00,31.5,31.5,30.11,NNW,334,3.6,5.4,100,0.00,,,0.00,WUHU215WMR968SP,2013-03-07 11:15:00,
2013-03-07 06:20:00,31.3,31.3,30.08,NNW,336,3.1,5.4,100,0.00,,,0.00,WUHU215WMR968SP,2013-03-07 11:20:00,
2013-03-07 06:25:00,31.3,31.3,30.08,North,6,3.6,5.8,100,0.00,,,0.00,WUHU215WMR968SP,2013-03-07 11:25:00,
2013-03-07 06:30:00,31.3,31.3,30.08,NNW,340,4.5,5.8,100,0.00,,,0.00,WUHU215WMR968SP,2013-03-07 11:30:00,
2013-03-07 06:35:00,31.3,31.3,30.11,North,9,0.0,5.4,100,0.00,,,0.00,WUHU215WMR968SP,2013-03-07 11:35:00,
2013-03-07 06:40:00,31.1,31.1,30.11,North,353,2.7,5.4,100,0.00,,,0.00,WUHU215WMR968SP,2013-03-07 11:40:00,
2013-03-07 06:45:00,31.1,31.1,30.11,NNW,339,0.0,5.8,100,0.00,,,0.00,WUHU215WMR968SP,2013-03-07 11:45:00,
2013-03-07 06:50:00,31.1,31.1,30.08,NNW,342,0.0,5.8,100,0.00,,,0.00,WUHU215WMR968SP,2013-03-07 11:50:00,
2013-03-07 06:55:00,31.1,31.1,30.08,NW,320,3.1,4.0,100,0.00,,,0.00,WUHU215WMR968SP,2013-03-07 11:55:00,
2013-03-07 07:01:00,31.1,31.1,30.08,North,357,0.0,4.0,100,0.00,,,0.00,WUHU215WMR968SP,2013-03-07 12:01:00,
2013-03-07 07:06:00,31.1,31.1,30.11,NNW,328,0.0,4.0,100,0.00,,,0.00,WUHU215WMR968SP,2013-03-07 12:06:00,
2013-03-07 07:11:00,31.1,31.1,30.11,NNW,337,0.0,4.0,100,0.00,,,0.00,WUHU215WMR968SP,2013-03-07 12:11:00,
2013-03-07 07:16:00,31.1,31.1,30.11,NNW,328,3.6,4.0,100,0.00,,,0.00,WUHU215WMR968SP,2013-03-07 12:16:00,
2013-03-07 07:21:00,31.1,31.1,30.11,NW,316,3.1,4.0,100,0.00,,,0.00,WUHU215WMR968SP,2013-03-07 12:21:00,
2013-03-07 07:26:00,31.1,31.1,30.11,NNW,337,0.0,5.4,100,0.00,,,0.00,WUHU215WMR968SP,2013-03-07 12:26:00,
2013-03-07 07:31:00,30.9,30.9,30.14,NNW,340,2.7,5.8,100,0.00,,,0.00,WUHU215WMR968SP,2013-03-07 12:31:00,
2013-03-07 07:36:00,30.9,30.9,30.14,NNE,12,2.2,5.8,100,0.00,,,0.00,WUHU215WMR968SP,2013-03-07 12:36:00,
2013-03-07 07:41:00,30.9,30.9,30.14,NNW,335,0.0,3.6,100,0.00,,,0.00,WUHU215WMR968SP,2013-03-07 12:41:00,
2013-03-07 07:46:00,31.1,31.1,30.14,North,11,0.0,3.1,100,0.00,,,0.00,WUHU215WMR968SP,2013-03-07 12:46:00,
2013-03-07 07:51:00,31.1,31.1,30.14,North,1,0.0,3.6,100,0.00,,,0.00,WUHU215WMR968SP,2013-03-07 12:51:00,
2013-03-07 07:56:00,31.1,31.1,30.14,North,3,0.0,3.6,100,0.00,,,0.00,WUHU215WMR968SP,2013-03-07 12:56:00,
2013-03-07 08:01:00,31.1,31.1,30.14,North,0,2.7,3.6,100,0.00,,,0.00,WUHU215WMR968SP,2013-03-07 13:01:00,
2013-03-07 08:06:00,31.3,31.3,30.14,NNE,12,3.6,5.4,100,0.00,,,0.00,WUHU215WMR968SP,2013-03-07 13:06:00,
2013-03-07 08:11:00,31.1,29.4,30.14,NNE,28,6.3,8.7,94,0.00,,,0.00,WUHU215WMR968SP,2013-03-07 13:11:00,
2013-03-07 08:16:00,31.3,29.1,30.14,North,10,4.9,8.7,92,0.00,,,0.00,WUHU215WMR968SP,2013-03-07 13:16:00,
2013-03-07 08:21:00,31.3,29.1,30.14,NNE,13,4.0,6.3,92,0.00,,,0.00,WUHU215WMR968SP,2013-03-07 13:21:00,
2013-03-07 08:26:00,31.5,29.3,30.14,North,11,3.1,6.3,92,0.00,,,0.00,WUHU215WMR968SP,2013-03-07 13:26:00,
2013-03-07 08:32:00,31.6,29.4,30.14,NNW,342,4.0,5.8,92,0.00,,,0.00,WUHU215WMR968SP,2013-03-07 13:32:00,
2013-03-07 08:37:00,31.6,29.0,30.14,SE,130,2.7,5.8,90,0.00,,,0.00,WUHU215WMR968SP,2013-03-07 13:37:00,
2013-03-07 08:42:00,31.8,28.7,30.14,NNW,348,3.6,5.4,88,0.00,,,0.00,WUHU215WMR968SP,2013-03-07 13:42:00,
2013-03-07 08:47:00,31.8,28.7,30.14,NNE,29,3.6,5.4,88,0.00,,,0.00,WUHU215WMR968SP,2013-03-07 13:47:00,
2013-03-07 08:52:00,32.0,28.9,30.14,North,0,2.2,5.8,88,0.00,,,0.00,WUHU215WMR968SP,2013-03-07 13:52:00,
2013-03-07 08:57:00,32.2,29.1,30.14,NW,317,0.0,5.8,88,0.00,,,0.00,WUHU215WMR968SP,2013-03-07 13:57:00,
2013-03-07 09:02:00,32.4,28.8,30.14,NNW,348,3.6,5.8,87,0.00,,,0.00,WUHU215WMR968SP,2013-03-07 14:02:00,
2013-03-07 09:07:00,32.4,28.8,30.14,NE,41,3.1,5.8,87,0.00,,,0.00,WUHU215WMR968SP,2013-03-07 14:07:00,
2013-03-07 09:12:00,32.5,28.5,30.14,North,357,4.5,5.8,85,0.00,,,0.00,WUHU215WMR968SP,2013-03-07 14:12:00,
2013-03-07 09:17:00,32.5,28.0,30.14,NNE,22,4.9,5.8,83,0.00,,,0.00,WUHU215WMR968SP,2013-03-07 14:17:00,
2013-03-07 09:22:00,32.5,27.0,30.14,North,10,5.8,8.1,80,0.00,,,0.00,WUHU215WMR968SP,2013-03-07 14:22:00,
2013-03-07 09:27:00,32.5,27.5,30.14,NNW,329,3.6,8.1,82,0.00,,,0.00,WUHU215WMR968SP,2013-03-07 14:27:00,
2013-03-07 09:32:00,32.7,27.2,30.17,North,7,5.8,8.3,80,0.00,,,0.00,WUHU215WMR968SP,2013-03-07 14:32:00,
2013-03-07 09:37:00,32.7,27.2,30.17,NW,326,7.2,8.7,80,0.00,,,0.00,WUHU215WMR968SP,2013-03-07 14:37:00,
2013-03-07 09:42:00,32.7,27.2,30.17,NW,325,4.9,10.1,80,0.00,,,0.00,WUHU215WMR968SP,2013-03-07 14:42:00,
2013-03-07 09:47:00,32.9,26.9,30.17,North,353,5.8,10.1,78,0.00,,,0.00,WUHU215WMR968SP,2013-03-07 14:47:00,
2013-03-07 09:52:00,33.1,27.1,30.17,North,1,4.0,8.1,78,0.00,,,0.00,WUHU215WMR968SP,2013-03-07 14:52:00,
2013-03-07 09:57:00,33.3,26.2,30.17,NNE,16,5.4,6.3,75,0.00,,,0.00,WUHU215WMR968SP,2013-03-07 14:57:00,
2013-03-07 10:02:00,33.6,27.0,30.17,North,0,4.0,6.3,77,0.00,,,0.00,WUHU215WMR968SP,2013-03-07 15:02:00,
2013-03-07 10:07:00,33.8,26.7,30.17,North,9,3.1,6.3,75,0.00,,,0.00,WUHU215WMR968SP,2013-03-07 15:07:00,
2013-03-07 10:12:00,34.0,26.3,30.17,NNE,14,4.0,6.3,73,0.00,,,0.00,WUHU215WMR968SP,2013-03-07 15:12:00,
2013-03-07 10:17:00,34.3,26.1,30.17,NNE,12,4.0,6.3,71,0.00,,,0.00,WUHU215WMR968SP,2013-03-07 15:17:00,
2013-03-07 10:22:00,34.7,25.3,30.17,NW,314,4.9,7.6,68,0.00,,,0.00,WUHU215WMR968SP,2013-03-07 15:22:00,
2013-03-07 10:28:00,35.1,26.3,30.17,NNW,332,2.7,7.6,70,0.00,,,0.00,WUHU215WMR968SP,2013-03-07 15:28:00,
2013-03-07 10:33:00,35.4,26.0,30.17,North,357,3.6,6.3,68,0.00,,,0.00,WUHU215WMR968SP,2013-03-07 15:33:00,
2013-03-07 10:38:00,35.4,24.1,30.17,WNW,302,4.0,6.3,63,0.00,,,0.00,WUHU215WMR968SP,2013-03-07 15:38:00,
2013-03-07 10:43:00,35.6,24.3,30.17,NNW,335,3.1,6.3,63,0.00,,,0.00,WUHU215WMR968SP,2013-03-07 15:43:00,
2013-03-07 10:48:00,35.8,23.1,30.17,NNW,337,4.5,6.3,60,0.00,,,0.00,WUHU215WMR968SP,2013-03-07 15:48:00,
2013-03-07 10:53:00,36.0,22.6,30.17,NNW,337,4.5,5.8,58,0.00,,,0.00,WUHU215WMR968SP,2013-03-07 15:53:00,
2013-03-07 10:58:00,36.1,22.0,30.17,NNE,29,5.4,8.3,56,0.00,,,0.00,WUHU215WMR968SP,2013-03-07 15:58:00,
2013-03-07 11:03:00,36.1,22.7,30.17,NNE,28,4.9,8.3,58,0.00,,,0.00,WUHU215WMR968SP,2013-03-07 16:03:00,
2013-03-07 11:08:00,36.1,22.7,30.17,North,9,4.5,8.3,58,0.00,,,0.00,WUHU215WMR968SP,2013-03-07 16:08:00,
2013-03-07 11:13:00,36.1,22.7,30.17,NNW,345,7.2,8.7,58,0.00,,,0.00,WUHU215WMR968SP,2013-03-07 16:13:00,
2013-03-07 11:18:00,36.1,23.4,30.17,West,265,3.1,8.7,60,0.00,,,0.00,WUHU215WMR968SP,2013-03-07 16:18:00,
2013-03-07 11:23:00,36.3,22.9,30.17,North,353,3.6,7.2,58,0.00,,,0.00,WUHU215WMR968SP,2013-03-07 16:23:00,
2013-03-07 11:28:00,36.7,23.3,30.17,North,353,6.7,8.1,58,0.00,,,0.00,WUHU215WMR968SP,2013-03-07 16:28:00,
2013-03-07 11:33:00,36.7,22.5,30.17,North,357,7.2,10.1,56,0.00,,,0.00,WUHU215WMR968SP,2013-03-07 16:33:00,
2013-03-07 11:38:00,36.5,23.1,30.17,NNW,327,3.1,10.1,58,0.00,,,0.00,WUHU215WMR968SP,2013-03-07 16:38:00,
2013-03-07 11:43:00,36.7,22.5,30.17,NNE,15,5.4,7.6,56,0.00,,,0.00,WUHU215WMR968SP,2013-03-07 16:43:00,
2013-03-07 11:49:00,35.8,21.7,30.17,NE,35,6.7,8.7,56,0.00,,,0.00,WUHU215WMR968SP,2013-03-07 16:49:00,
2013-03-07 11:54:00,35.8,23.1,30.17,WNW,295,0.0,8.7,60,0.00,,,0.00,WUHU215WMR968SP,2013-03-07 16:54:00,
2013-03-07 11:59:00,36.7,23.3,30.17,SW,235,0.0,5.4,58,0.00,,,0.00,WUHU215WMR968SP,2013-03-07 16:59:00,
2013-03-07 12:04:00,37.2,22.3,30.17,NNE,17,4.9,7.2,54,0.00,,,0.00,WUHU215WMR968SP,2013-03-07 17:04:00,
2013-03-07 12:09:00,36.5,22.3,30.17,NW,324,4.0,9.2,56,0.00,,,0.00,WUHU215WMR968SP,2013-03-07 17:09:00,
2013-03-07 12:14:00,36.1,22.0,30.17,NW,313,4.5,9.2,56,0.00,,,0.00,WUHU215WMR968SP,2013-03-07 17:14:00,
2013-03-07 12:19:00,36.1,22.0,30.17,NNE,19,4.9,8.1,56,0.00,,,0.00,WUHU215WMR968SP,2013-03-07 17:19:00,
2013-03-07 12:25:00,36.1,22.7,30.17,NNW,343,3.1,8.3,58,0.00,,,0.00,WUHU215WMR968SP,2013-03-07 17:25:00,
2013-03-07 12:30:00,36.0,21.9,30.17,North,5,4.9,8.3,56,0.00,,,0.00,WUHU215WMR968SP,2013-03-07 17:30:00,
2013-03-07 12:35:00,35.8,21.7,30.17,North,0,5.4,8.7,56,0.00,,,0.00,WUHU215WMR968SP,2013-03-07 17:35:00,
2013-03-07 12:40:00,36.0,22.6,30.17,NNE,17,3.1,8.7,58,0.00,,,0.00,WUHU215WMR968SP,2013-03-07 17:40:00,
2013-03-07 12:45:00,36.0,21.9,30.17,NNW,342,4.0,8.7,56,0.00,,,0.00,WUHU215WMR968SP,2013-03-07 17:45:00,
2013-03-07 12:50:00,36.3,22.9,30.17,NNW,335,3.1,8.7,58,0.00,,,0.00,WUHU215WMR968SP,2013-03-07 17:50:00,
2013-03-07 12:55:00,36.9,22.7,30.17,North,0,3.1,5.4,56,0.00,,,0.00,WUHU215WMR968SP,2013-03-07 17:55:00,
2013-03-07 13:00:00,36.7,22.5,30.17,North,8,0.0,6.3,56,0.00,,,0.00,WUHU215WMR968SP,2013-03-07 18:00:00,
2013-03-07 13:05:00,36.7,22.5,30.17,North,0,3.1,6.3,56,0.00,,,0.00,WUHU215WMR968SP,2013-03-07 18:05:00,
2013-03-07 13:10:00,36.7,21.8,30.17,NNW,334,4.5,5.8,54,0.00,,,0.00,WUHU215WMR968SP,2013-03-07 18:10:00,
2013-03-07 13:15:00,36.7,22.5,30.17,WNW,294,0.0,6.3,56,0.00,,,0.00,WUHU215WMR968SP,2013-03-07 18:15:00,
2013-03-07 13:20:00,37.2,22.3,30.17,WNW,302,3.1,6.3,54,0.00,,,0.00,WUHU215WMR968SP,2013-03-07 18:20:00,
2013-03-07 13:25:00,37.0,22.8,30.17,North,7,4.0,10.5,56,0.00,,,0.00,WUHU215WMR968SP,2013-03-07 18:25:00,
2013-03-07 13:30:00,36.9,22.7,30.17,North,0,4.5,10.5,56,0.00,,,0.00,WUHU215WMR968SP,2013-03-07 18:30:00,
2013-03-07 13:35:00,37.0,22.8,30.17,WSW,253,3.1,10.5,56,0.00,,,0.00,WUHU215WMR968SP,2013-03-07 18:35:00,
2013-03-07 13:41:00,37.0,22.1,30.17,West,269,2.2,8.3,54,0.00,,,0.00,WUHU215WMR968SP,2013-03-07 18:41:00,
2013-03-07 13:46:00,36.9,22.0,30.17,WSW,254,2.7,8.3,54,0.00,,,0.00,WUHU215WMR968SP,2013-03-07 18:46:00,
2013-03-07 13:50:00,36.9,22.0,30.17,North,353,4.5,7.6,54,0.00,,,0.00,WUHU215WMR968SP,2013-03-07 18:50:00,
2013-03-07 13:55:00,36.7,21.8,30.17,NNW,329,5.8,8.3,54,0.00,,,0.00,WUHU215WMR968SP,2013-03-07 18:55:00,
2013-03-07 14:00:00,36.3,22.2,30.17,NW,323,3.6,8.3,56,0.00,,,0.00,WUHU215WMR968SP,2013-03-07 19:00:00,
2013-03-07 14:05:00,36.1,22.0,30.17,North,350,5.8,8.1,56,0.00,,,0.00,WUHU215WMR968SP,2013-03-07 19:05:00,
2013-03-07 14:10:00,36.3,22.9,30.17,NNE,24,2.2,8.1,58,0.00,,,0.00,WUHU215WMR968SP,2013-03-07 19:10:00,
2013-03-07 14:15:00,36.5,22.3,30.17,North,0,6.3,8.1,56,0.00,,,0.00,WUHU215WMR968SP,2013-03-07 19:15:00,
2013-03-07 14:20:00,36.3,21.4,30.17,NNE,23,4.5,8.1,54,0.00,,,0.00,WUHU215WMR968SP,2013-03-07 19:20:00,
2013-03-07 14:25:00,36.3,21.4,30.17,North,353,3.6,8.1,54,0.00,,,0.00,WUHU215WMR968SP,2013-03-07 19:25:00,
2013-03-07 14:31:00,36.7,21.0,30.17,NNW,332,6.7,9.2,53,0.00,,,0.00,WUHU215WMR968SP,2013-03-07 19:31:00,
2013-03-07 14:36:00,36.9,21.2,30.17,NNW,331,3.1,9.2,53,0.00,,,0.00,WUHU215WMR968SP,2013-03-07 19:36:00,
2013-03-07 14:41:00,36.9,21.2,30.17,NNE,33,4.0,7.6,53,0.00,,,0.00,WUHU215WMR968SP,2013-03-07 19:41:00,
2013-03-07 14:46:00,37.4,21.7,30.17,NW,325,3.1,6.3,53,0.00,,,0.00,WUHU215WMR968SP,2013-03-07 19:46:00,
2013-03-07 14:51:00,37.4,21.7,30.17,WNW,292,4.5,7.6,53,0.00,,,0.00,WUHU215WMR968SP,2013-03-07 19:51:00,
2013-03-07 14:56:00,37.2,22.3,30.17,WNW,287,3.1,7.6,54,0.00,,,0.00,WUHU215WMR968SP,2013-03-07 19:56:00,
2013-03-07 15:01:00,37.0,22.1,30.17,WSW,243,0.0,4.9,54,0.00,,,0.00,WUHU215WMR968SP,2013-03-07 20:01:00,
2013-03-07 15:06:00,37.0,22.1,30.17,NW,314,2.2,4.9,54,0.00,,,0.00,WUHU215WMR968SP,2013-03-07 20:06:00,
2013-03-07 15:11:00,36.9,22.0,30.17,North,9,0.0,4.9,54,0.00,,,0.00,WUHU215WMR968SP,2013-03-07 20:11:00,
2013-03-07 15:16:00,36.9,22.0,30.17,NNW,348,2.2,4.9,54,0.00,,,0.00,WUHU215WMR968SP,2013-03-07 20:16:00,
2013-03-07 15:21:00,37.0,22.1,30.17,WNW,300,0.0,4.9,54,0.00,,,0.00,WUHU215WMR968SP,2013-03-07 20:21:00,
2013-03-07 15:27:00,37.0,22.1,30.17,NNE,30,4.0,8.1,54,0.00,,,0.00,WUHU215WMR968SP,2013-03-07 20:27:00,
2013-03-07 15:32:00,36.5,21.6,30.17,NW,314,4.9,8.1,54,0.00,,,0.00,WUHU215WMR968SP,2013-03-07 20:32:00,
2013-03-07 15:37:00,36.3,22.2,30.17,NW,305,3.6,7.6,56,0.00,,,0.00,WUHU215WMR968SP,2013-03-07 20:37:00,
2013-03-07 15:42:00,36.5,22.3,30.17,NW,323,0.0,5.8,56,0.00,,,0.00,WUHU215WMR968SP,2013-03-07 20:42:00,
2013-03-07 15:47:00,36.3,22.2,30.17,NNW,341,2.7,7.6,56,0.00,,,0.00,WUHU215WMR968SP,2013-03-07 20:47:00,
2013-03-07 15:52:00,36.1,22.7,30.17,North,357,4.5,7.6,58,0.00,,,0.00,WUHU215WMR968SP,2013-03-07 20:52:00,
2013-03-07 15:57:00,36.0,22.6,30.17,North,353,4.9,8.1,58,0.00,,,0.00,WUHU215WMR968SP,2013-03-07 20:57:00,
2013-03-07 16:02:00,35.8,22.4,30.17,SW,220,0.0,8.1,58,0.00,,,0.00,WUHU215WMR968SP,2013-03-07 21:02:00,
2013-03-07 16:07:00,36.1,22.7,30.17,WNW,294,2.7,6.3,58,0.00,,,0.00,WUHU215WMR968SP,2013-03-07 21:07:00,
2013-03-07 16:12:00,36.1,22.7,30.17,West,279,4.0,6.3,58,0.00,,,0.00,WUHU215WMR968SP,2013-03-07 21:12:00,
2013-03-07 16:17:00,36.1,22.7,30.17,North,7,5.4,10.1,58,0.00,,,0.00,WUHU215WMR968SP,2013-03-07 21:17:00,
2013-03-07 16:22:00,35.8,21.7,30.17,NNE,19,4.0,10.1,56,0.00,,,0.00,WUHU215WMR968SP,2013-03-07 21:22:00,
2013-03-07 16:27:00,35.6,22.2,30.17,WNW,290,5.4,10.1,58,0.00,,,0.00,WUHU215WMR968SP,2013-03-07 21:27:00,
2013-03-07 16:32:00,35.6,22.2,30.17,NNE,17,5.8,8.3,58,0.00,,,0.00,WUHU215WMR968SP,2013-03-07 21:32:00,
2013-03-07 16:37:00,35.4,22.7,30.17,NW,325,2.7,8.3,60,0.00,,,0.00,WUHU215WMR968SP,2013-03-07 21:37:00,
2013-03-07 16:42:00,35.6,22.9,30.17,North,6,3.1,6.7,60,0.00,,,0.00,WUHU215WMR968SP,2013-03-07 21:42:00,
2013-03-07 16:48:00,35.6,22.2,30.17,NW,304,0.0,6.3,58,0.00,,,0.00,WUHU215WMR968SP,2013-03-07 21:48:00,
2013-03-07 16:53:00,35.8,22.4,30.17,NW,324,5.4,7.6,58,0.00,,,0.00,WUHU215WMR968SP,2013-03-07 21:53:00,
2013-03-07 16:58:00,36.0,23.3,30.17,NW,307,3.1,7.6,60,0.00,,,0.00,WUHU215WMR968SP,2013-03-07 21:58:00,
2013-03-07 17:03:00,36.1,23.4,30.17,North,8,3.6,5.8,60,0.00,,,0.00,WUHU215WMR968SP,2013-03-07 22:03:00,
2013-03-07 17:08:00,35.8,22.4,30.17,West,261,4.5,8.7,58,0.00,,,0.00,WUHU215WMR968SP,2013-03-07 22:08:00,
2013-03-07 17:13:00,35.1,23.8,30.17,NNW,346,5.8,8.7,63,0.00,,,0.00,WUHU215WMR968SP,2013-03-07 22:13:00,
2013-03-07 17:18:00,34.7,25.3,30.17,SSW,197,2.2,10.1,68,0.00,,,0.00,WUHU215WMR968SP,2013-03-07 22:18:00,
2013-03-07 17:23:00,34.5,25.1,30.17,West,278,2.2,10.1,68,0.00,,,0.00,WUHU215WMR968SP,2013-03-07 22:23:00,
2013-03-07 17:28:00,34.3,24.9,30.17,North,8,3.6,8.7,68,0.00,,,0.00,WUHU215WMR968SP,2013-03-07 22:28:00,
2013-03-07 17:33:00,34.2,24.8,30.17,NNW,342,3.6,8.1,68,0.00,,,0.00,WUHU215WMR968SP,2013-03-07 22:33:00,
2013-03-07 17:38:00,33.8,25.0,30.17,WNW,298,3.6,8.1,70,0.00,,,0.00,WUHU215WMR968SP,2013-03-07 22:38:00,
2013-03-07 17:43:00,33.6,24.8,30.17,NW,314,0.0,7.6,70,0.00,,,0.00,WUHU215WMR968SP,2013-03-07 22:43:00,
2013-03-07 17:48:00,33.4,24.6,30.17,NW,304,0.0,8.7,70,0.00,,,0.00,WUHU215WMR968SP,2013-03-07 22:48:00,
2013-03-07 17:53:00,33.3,25.1,30.17,NNW,345,0.0,8.7,71,0.00,,,0.00,WUHU215WMR968SP,2013-03-07 22:53:00,
2013-03-07 17:58:00,33.1,24.9,30.17,NW,305,3.6,10.1,71,0.00,,,0.00,WUHU215WMR968SP,2013-03-07 22:58:00,
2013-03-07 18:03:00,33.1,24.9,30.17,NNW,327,2.2,10.1,71,0.00,,,0.00,WUHU215WMR968SP,2013-03-07 23:03:00,
2013-03-07 18:08:00,33.1,24.9,30.17,SW,224,3.1,4.9,71,0.00,,,0.00,WUHU215WMR968SP,2013-03-07 23:08:00,
2013-03-07 18:13:00,32.9,24.7,30.17,NW,318,0.0,4.9,71,0.00,,,0.00,WUHU215WMR968SP,2013-03-07 23:13:00,
2013-03-07 18:18:00,32.7,24.5,30.19,NE,36,0.0,4.0,71,0.00,,,0.00,WUHU215WMR968SP,2013-03-07 23:18:00,
2013-03-07 18:23:00,32.7,24.5,30.19,WNW,292,0.0,4.5,71,0.00,,,0.00,WUHU215WMR968SP,2013-03-07 23:23:00,
2013-03-07 18:28:00,32.5,24.3,30.19,North,353,2.2,4.5,71,0.00,,,0.00,WUHU215WMR968SP,2013-03-07 23:28:00,
2013-03-07 18:33:00,32.2,24.0,30.19,NW,305,2.7,4.0,71,0.00,,,0.00,WUHU215WMR968SP,2013-03-07 23:33:00,
2013-03-07 18:38:00,32.0,23.9,30.19,West,270,0.0,4.0,71,0.00,,,0.00,WUHU215WMR968SP,2013-03-07 23:38:00,
2013-03-07 18:43:00,31.6,23.5,30.19,West,279,0.0,3.1,71,0.00,,,0.00,WUHU215WMR968SP,2013-03-07 23:43:00,
2013-03-07 18:48:00,31.3,23.2,30.19,NNW,337,0.0,5.4,71,0.00,,,0.00,WUHU215WMR968SP,2013-03-07 23:48:00,
2013-03-07 18:53:00,31.1,23.0,30.19,NNW,332,0.0,5.4,71,0.00,,,0.00,WUHU215WMR968SP,2013-03-07 23:53:00,
2013-03-07 18:58:00,30.9,23.3,30.19,NW,323,2.2,4.0,73,0.00,,,0.00,WUHU215WMR968SP,2013-03-07 23:58:00,
2013-03-07 19:03:00,30.7,23.2,30.19,NW,323,0.0,4.0,73,0.00,,,0.00,WUHU215WMR968SP,2013-03-08 00:03:00,
2013-03-07 19:08:00,30.4,22.9,30.19,NW,323,0.0,2.2,73,0.00,,,0.00,WUHU215WMR968SP,2013-03-08 00:08:00,
2013-03-07 19:13:00,30.0,22.5,30.19,NW,323,0.0,0.0,73,0.00,,,0.00,WUHU215WMR968SP,2013-03-08 00:13:00,
2013-03-07 19:18:00,29.7,22.2,30.19,NW,323,0.0,0.0,73,0.00,,,0.00,WUHU215WMR968SP,2013-03-08 00:18:00,
2013-03-07 19:23:00,29.5,22.5,30.19,WNW,302,0.0,3.6,75,0.00,,,0.00,WUHU215WMR968SP,2013-03-08 00:23:00,
2013-03-07 19:28:00,29.5,23.1,30.19,WNW,302,0.0,3.6,77,0.00,,,0.00,WUHU215WMR968SP,2013-03-08 00:28:00,
2013-03-07 19:33:00,29.3,22.9,30.19,WNW,302,0.0,0.0,77,0.00,,,0.00,WUHU215WMR968SP,2013-03-08 00:33:00,
2013-03-07 19:38:00,29.3,23.4,30.19,NW,318,2.2,3.1,78,0.00,,,0.00,WUHU215WMR968SP,2013-03-08 00:38:00,
2013-03-07 19:43:00,29.3,24.4,30.19,NW,318,0.0,3.1,82,0.00,,,0.00,WUHU215WMR968SP,2013-03-08 00:43:00,
2013-03-07 19:48:00,29.3,24.4,30.19,NNW,332,0.0,4.0,82,0.00,,,0.00,WUHU215WMR968SP,2013-03-08 00:48:00,
2013-03-07 19:54:00,29.3,24.4,30.19,NNW,328,3.1,4.0,82,0.00,,,0.00,WUHU215WMR968SP,2013-03-08 00:54:00,
2013-03-07 19:59:00,29.3,24.4,30.19,NW,305,0.0,3.6,82,0.00,,,0.00,WUHU215WMR968SP,2013-03-08 00:59:00,
2013-03-07 20:04:00,29.1,24.2,30.19,NW,317,0.0,3.1,82,0.00,,,0.00,WUHU215WMR968SP,2013-03-08 01:04:00,
2013-03-07 20:09:00,28.9,24.0,30.19,NW,324,2.7,3.1,82,0.00,,,0.00,WUHU215WMR968SP,2013-03-08 01:09:00,
2013-03-07 20:14:00,28.9,24.0,30.19,WNW,303,0.0,3.1,82,0.00,,,0.00,WUHU215WMR968SP,2013-03-08 01:14:00,
2013-03-07 20:19:00,28.9,24.0,30.19,NW,324,0.0,3.1,82,0.00,,,0.00,WUHU215WMR968SP,2013-03-08 01:19:00,
2013-03-07 20:24:00,28.8,23.9,30.19,NNW,341,0.0,3.1,82,0.00,,,0.00,WUHU215WMR968SP,2013-03-08 01:24:00,
2013-03-07 20:29:00,28.6,23.7,30.19,WNW,293,0.0,3.1,82,0.00,,,0.00,WUHU215WMR968SP,2013-03-08 01:29:00,
2013-03-07 20:34:00,28.4,24.0,30.19,WNW,293,0.0,3.1,83,0.00,,,0.00,WUHU215WMR968SP,2013-03-08 01:34:00,
2013-03-07 20:39:00,28.2,23.8,30.19,WNW,294,0.0,2.7,83,0.00,,,0.00,WUHU215WMR968SP,2013-03-08 01:39:00,
2013-03-07 20:44:00,28.0,23.6,30.19,WNW,294,0.0,2.7,83,0.00,,,0.00,WUHU215WMR968SP,2013-03-08 01:44:00,
2013-03-07 20:49:00,27.9,23.5,30.19,WNW,294,0.0,2.7,83,0.00,,,0.00,WUHU215WMR968SP,2013-03-08 01:49:00,
2013-03-07 20:54:00,27.7,23.3,30.19,WNW,294,0.0,2.7,83,0.00,,,0.00,WUHU215WMR968SP,2013-03-08 01:54:00,
2013-03-07 20:59:00,27.3,22.9,30.19,WNW,294,0.0,0.0,83,0.00,,,0.00,WUHU215WMR968SP,2013-03-08 01:59:00,
2013-03-07 21:04:00,27.1,23.2,30.19,WNW,294,0.0,0.0,85,0.00,,,0.00,WUHU215WMR968SP,2013-03-08 02:04:00,
2013-03-07 21:09:00,26.8,22.9,30.19,WNW,294,0.0,0.0,85,0.00,,,0.00,WUHU215WMR968SP,2013-03-08 02:09:00,
2013-03-07 21:15:00,26.2,22.3,30.19,WNW,294,0.0,0.0,85,0.00,,,0.00,WUHU215WMR968SP,2013-03-08 02:15:00,
2013-03-07 21:20:00,26.1,22.6,30.22,WNW,294,0.0,0.0,87,0.00,,,0.00,WUHU215WMR968SP,2013-03-08 02:20:00,
2013-03-07 21:25:00,26.1,23.1,30.22,WNW,294,0.0,0.0,88,0.00,,,0.00,WUHU215WMR968SP,2013-03-08 02:25:00,
2013-03-07 21:30:00,25.7,22.7,30.22,WNW,294,0.0,0.0,88,0.00,,,0.00,WUHU215WMR968SP,2013-03-08 02:30:00,
2013-03-07 21:35:00,25.5,22.5,30.22,WNW,294,0.0,0.0,88,0.00,,,0.00,WUHU215WMR968SP,2013-03-08 02:35:00,
2013-03-07 21:40:00,25.3,22.3,30.22,WNW,294,0.0,0.0,88,0.00,,,0.00,WUHU215WMR968SP,2013-03-08 02:40:00,
2013-03-07 21:45:00,25.2,22.2,30.22,WNW,294,0.0,0.0,88,0.00,,,0.00,WUHU215WMR968SP,2013-03-08 02:45:00,
2013-03-07 21:50:00,25.0,22.5,30.19,WNW,294,0.0,0.0,90,0.00,,,0.00,WUHU215WMR968SP,2013-03-08 02:50:00,
2013-03-07 21:55:00,24.6,22.1,30.19,WNW,294,0.0,0.0,90,0.00,,,0.00,WUHU215WMR968SP,2013-03-08 02:55:00,
2013-03-07 22:00:00,24.4,22.3,30.19,WNW,294,0.0,0.0,92,0.00,,,0.00,WUHU215WMR968SP,2013-03-08 03:00:00,
2013-03-07 22:05:00,24.3,22.2,30.19,WNW,294,0.0,0.0,92,0.00,,,0.00,WUHU215WMR968SP,2013-03-08 03:05:00,
2013-03-07 22:10:00,24.3,22.2,30.19,WNW,294,0.0,0.0,92,0.00,,,0.00,WUHU215WMR968SP,2013-03-08 03:10:00,
2013-03-07 22:15:00,24.1,22.0,30.19,WNW,294,0.0,0.0,92,0.00,,,0.00,WUHU215WMR968SP,2013-03-08 03:15:00,
2013-03-07 22:20:00,23.9,22.3,30.19,WNW,294,0.0,0.0,94,0.00,,,0.00,WUHU215WMR968SP,2013-03-08 03:20:00,
2013-03-07 22:25:00,23.7,22.1,30.19,WNW,294,0.0,0.0,94,0.00,,,0.00,WUHU215WMR968SP,2013-03-08 03:25:00,
2013-03-07 22:30:00,23.5,21.9,30.19,WNW,294,0.0,0.0,94,0.00,,,0.00,WUHU215WMR968SP,2013-03-08 03:30:00,
2013-03-07 22:35:00,23.4,21.8,30.19,WNW,294,0.0,0.0,94,0.00,,,0.00,WUHU215WMR968SP,2013-03-08 03:35:00,
2013-03-07 22:41:00,23.2,22.0,30.19,WNW,294,0.0,0.0,95,0.00,,,0.00,WUHU215WMR968SP,2013-03-08 03:41:00,
2013-03-07 22:46:00,23.0,21.8,30.19,WNW,294,0.0,0.0,95,0.00,,,0.00,WUHU215WMR968SP,2013-03-08 03:46:00,
2013-03-07 22:51:00,22.8,22.0,30.19,WNW,294,0.0,0.0,97,0.00,,,0.00,WUHU215WMR968SP,2013-03-08 03:51:00,
2013-03-07 22:56:00,22.8,22.0,30.19,WNW,294,0.0,0.0,97,0.00,,,0.00,WUHU215WMR968SP,2013-03-08 03:56:00,
2013-03-07 23:01:00,22.5,21.7,30.19,WNW,294,0.0,0.0,97,0.00,,,0.00,WUHU215WMR968SP,2013-03-08 04:01:00,
2013-03-07 23:06:00,22.3,21.5,30.19,WNW,294,0.0,0.0,97,0.00,,,0.00,WUHU215WMR968SP,2013-03-08 04:06:00,
2013-03-07 23:11:00,21.9,21.5,30.19,WNW,294,0.0,0.0,99,0.00,,,0.00,WUHU215WMR968SP,2013-03-08 04:11:00,
2013-03-07 23:16:00,21.9,21.5,30.19,WNW,294,0.0,0.0,99,0.00,,,0.00,WUHU215WMR968SP,2013-03-08 04:16:00,
2013-03-07 23:21:00,21.6,21.6,30.19,WNW,294,0.0,0.0,100,0.00,,,0.00,WUHU215WMR968SP,2013-03-08 04:21:00,
2013-03-07 23:26:00,21.6,21.6,30.19,WNW,294,0.0,0.0,100,0.00,,,0.00,WUHU215WMR968SP,2013-03-08 04:26:00,
2013-03-07 23:31:00,21.7,21.7,30.22,WNW,294,0.0,0.0,100,0.00,,,0.00,WUHU215WMR968SP,2013-03-08 04:31:00,
2013-03-07 23:36:00,21.7,21.7,30.22,WNW,294,0.0,0.0,100,0.00,,,0.00,WUHU215WMR968SP,2013-03-08 04:36:00,
2013-03-07 23:41:00,21.7,21.7,30.22,WNW,294,0.0,0.0,100,0.00,,,0.00,WUHU215WMR968SP,2013-03-08 04:41:00,
2013-03-07 23:46:00,21.9,21.9,30.22,WNW,294,0.0,0.0,100,0.00,,,0.00,WUHU215WMR968SP,2013-03-08 04:46:00,
2013-03-07 23:51:00,21.9,21.9,30.22,WNW,294,0.0,0.0,100,0.00,,,0.00,WUHU215WMR968SP,2013-03-08 04:51:00,
2013-03-07 23:56:00,21.9,21.9,30.22,WNW,294,0.0,0.0,100,0.00,,,0.00,WUHU215WMR968SP,2013-03-08 04:56:00,